createdAt,value
2022-11-12T00:01:45.837Z,99361.15
2022-11-12T00:04:32.456Z,99363.36
2022-11-12T00:07:18.894Z,99366.56
2022-11-12T00:10:05.613Z,99369.67
2022-11-12T00:12:52.444Z,99369.52
2022-11-12T00:15:38.754Z,99369.40
2022-11-12T00:18:25.605Z,99371.85
2022-11-12T00:21:12.263Z,99372.28
2022-11-12T00:23:58.694Z,99370.11
2022-11-12T00:26:45.711Z,99374.73
2022-11-12T00:29:32.227Z,99376.92
2022-11-12T00:32:20.157Z,99374.25
2022-11-12T00:35:12.434Z,99372.89
2022-11-12T00:38:01.014Z,99371.23
2022-11-12T00:40:47.543Z,99373.45
2022-11-12T00:43:34.044Z,99375.42
2022-11-12T00:46:21.065Z,99379.52
2022-11-12T00:49:07.763Z,99381.51
2022-11-12T00:51:54.688Z,99384.52
2022-11-12T00:54:40.862Z,99391.14
2022-11-12T00:57:27.157Z,99390.67
2022-11-12T01:00:15.957Z,99398.35
2022-11-12T01:03:02.629Z,99404.04
2022-11-12T01:05:49.651Z,99400.38
2022-11-12T01:08:36.771Z,99398.57
2022-11-12T01:11:25.109Z,99394.63
2022-11-12T01:14:11.879Z,99387.65
2022-11-12T01:16:58.605Z,99383.17
2022-11-12T01:19:45.132Z,99379.92
2022-11-12T01:22:31.947Z,99379.77
2022-11-12T01:25:18.754Z,99380.14
2022-11-12T01:28:05.088Z,99378.34
2022-11-12T01:30:51.862Z,99377.04
2022-11-12T01:33:39.182Z,99378.91
2022-11-12T01:36:27.011Z,99376.33
2022-11-12T01:39:13.516Z,99379.02
2022-11-12T01:42:00.429Z,99377.61
2022-11-12T01:44:47.457Z,99371.77
2022-11-12T01:47:34.867Z,99369.71
2022-11-12T01:50:24.544Z,99375.05
2022-11-12T01:53:12.095Z,99377.21
2022-11-12T01:55:59.496Z,99379.00
2022-11-12T01:58:46.850Z,99377.69
2022-11-12T02:01:35.207Z,99375.63
2022-11-12T02:04:24.000Z,99381.04
2022-11-12T02:07:11.282Z,99378.75
2022-11-12T02:09:59.586Z,99384.02
2022-11-12T02:13:06.134Z,99385.23
2022-11-12T02:15:52.862Z,99392.14
2022-11-12T02:18:39.432Z,99394.23
2022-11-12T02:21:26.517Z,99392.79
2022-11-12T02:24:13.238Z,99394.86
2022-11-12T02:27:00.616Z,99396.39
2022-11-12T02:29:46.913Z,99390.46
2022-11-12T02:32:34.030Z,99388.58
2022-11-12T02:35:21.148Z,99381.27
2022-11-12T02:38:08.118Z,99383.36
2022-11-12T02:40:54.512Z,99379.96
2022-11-12T02:43:41.434Z,99379.80
2022-11-12T02:46:28.180Z,99377.16
2022-11-12T02:49:14.988Z,99379.91
2022-11-12T02:52:01.701Z,99373.80
2022-11-12T02:54:48.438Z,99371.30
2022-11-12T02:57:35.157Z,99373.44
2022-11-12T03:00:21.614Z,99376.04
2022-11-12T03:03:08.205Z,99377.27
2022-11-12T03:05:57.076Z,99374.94
2022-11-12T03:08:43.942Z,99373.39
2022-11-12T03:11:30.406Z,99374.98
2022-11-12T03:14:16.979Z,99376.95
2022-11-12T03:17:04.116Z,99372.81
2022-11-12T03:19:51.125Z,99373.98
2022-11-12T03:22:38.651Z,99374.88
2022-11-12T03:25:25.563Z,99376.45
2022-11-12T03:28:13.542Z,99374.40
2022-11-12T03:31:00.631Z,99378.67
2022-11-12T03:33:47.564Z,99375.27
2022-11-12T03:36:34.924Z,99373.55
2022-11-12T03:39:21.233Z,99366.19
2022-11-12T03:42:07.927Z,99364.69
2022-11-12T03:44:54.510Z,99370.23
2022-11-12T03:47:44.917Z,99367.83
2022-11-12T03:50:31.640Z,99360.53
2022-11-12T03:53:18.122Z,99362.77
2022-11-12T03:56:05.016Z,99362.63
2022-11-12T03:58:51.752Z,99372.08
2022-11-12T04:01:38.159Z,99382.95
2022-11-12T04:04:44.977Z,99380.14
2022-11-12T04:07:49.981Z,99382.86
2022-11-12T04:10:36.913Z,99383.21
2022-11-12T04:13:29.316Z,99380.84
2022-11-12T04:16:36.359Z,99380.06
2022-11-12T04:19:41.683Z,99381.50
2022-11-12T04:22:28.101Z,99383.30
2022-11-12T04:25:33.567Z,99385.62
2022-11-12T04:28:20.067Z,99389.03
2022-11-12T04:31:06.501Z,99387.52
2022-11-12T04:33:52.993Z,99384.23
2022-11-12T04:36:39.494Z,99381.89
2022-11-12T04:39:25.906Z,99377.39
2022-11-12T04:42:31.690Z,99375.15
2022-11-12T04:45:18.498Z,99376.05
2022-11-12T04:48:05.001Z,99377.83
2022-11-12T04:50:56.833Z,99376.46
2022-11-12T04:53:43.536Z,99373.50
2022-11-12T04:56:30.056Z,99372.92
2022-11-12T04:59:17.081Z,99370.64
2022-11-12T05:02:03.581Z,99366.73
2022-11-12T05:04:51.045Z,99363.52
2022-11-12T05:07:37.590Z,99367.15
2022-11-12T05:10:24.479Z,99372.14
2022-11-12T05:13:11.068Z,99374.86
2022-11-12T05:15:57.302Z,99378.70
2022-11-12T05:18:43.595Z,99381.05
2022-11-12T05:21:48.935Z,99378.37
2022-11-12T05:24:43.054Z,99387.17
2022-11-12T05:27:29.931Z,99384.60
2022-11-12T05:30:17.056Z,99385.99
2022-11-12T05:33:03.582Z,99392.00
2022-11-12T05:35:50.489Z,99401.09
2022-11-12T05:38:39.257Z,99403.75
2022-11-12T05:41:25.721Z,99407.27
2022-11-12T05:44:12.635Z,99410.77
2022-11-12T05:46:59.401Z,99413.17
2022-11-12T05:49:46.254Z,99417.94
2022-11-12T05:52:32.833Z,99425.31
2022-11-12T05:55:19.870Z,99424.98
2022-11-12T05:58:07.478Z,99427.12
2022-11-12T06:00:54.101Z,99425.30
2022-11-12T06:03:40.425Z,99421.44
2022-11-12T06:06:27.416Z,99423.95
2022-11-12T06:09:14.019Z,99422.20
2022-11-12T06:12:02.581Z,99423.66
2022-11-12T06:14:49.133Z,99427.58
2022-11-12T06:17:35.836Z,99428.98
2022-11-12T06:20:23.574Z,99431.57
2022-11-12T06:23:10.115Z,99429.52
2022-11-12T06:25:56.579Z,99425.23
2022-11-12T06:28:43.574Z,99427.94
2022-11-12T06:31:30.107Z,99433.70
2022-11-12T06:34:16.518Z,99434.56
2022-11-12T06:37:02.963Z,99442.45
2022-11-12T06:39:49.605Z,99437.14
2022-11-12T06:42:36.197Z,99445.80
2022-11-12T06:45:23.059Z,99451.42
2022-11-12T06:48:10.274Z,99452.88
2022-11-12T06:50:57.395Z,99449.91
2022-11-12T06:53:44.563Z,99451.96
2022-11-12T06:56:31.149Z,99454.81
2022-11-12T06:59:17.817Z,99457.52
2022-11-12T07:02:05.752Z,99458.77
2022-11-12T07:04:52.540Z,99462.45
2022-11-12T07:07:39.893Z,99465.02
2022-11-12T07:10:26.707Z,99465.23
2022-11-12T07:13:13.330Z,99460.52
2022-11-12T07:16:00.773Z,99464.38
2022-11-12T07:18:48.075Z,99464.13
2022-11-12T07:21:34.678Z,99462.30
2022-11-12T07:24:21.071Z,99463.06
2022-11-12T07:27:07.564Z,99469.49
2022-11-12T07:29:55.987Z,99472.30
2022-11-12T07:32:47.107Z,99468.19
2022-11-12T07:35:36.250Z,99467.34
2022-11-12T07:38:22.813Z,99464.33
2022-11-12T07:41:09.801Z,99461.63
2022-11-12T07:43:56.272Z,99463.95
2022-11-12T07:46:42.818Z,99464.72
2022-11-12T07:49:29.386Z,99463.82
2022-11-12T07:52:16.122Z,99462.89
2022-11-12T07:55:02.931Z,99459.56
2022-11-12T07:57:49.271Z,99459.56
2022-11-12T08:00:35.811Z,99461.33
2022-11-12T08:03:22.603Z,99456.52
2022-11-12T08:06:09.147Z,99462.02
2022-11-12T08:08:57.025Z,99462.41
2022-11-12T08:11:44.102Z,99466.09
2022-11-12T08:14:31.111Z,99465.63
2022-11-12T08:17:17.745Z,99468.63
2022-11-12T08:20:05.118Z,99471.04
2022-11-12T08:22:51.829Z,99479.49
2022-11-12T08:25:38.327Z,99477.23
2022-11-12T08:28:25.309Z,99477.72
2022-11-12T08:31:13.819Z,99476.64
2022-11-12T08:34:12.370Z,99480.33
2022-11-12T08:36:59.342Z,99484.06
2022-11-12T08:39:45.787Z,99483.17
2022-11-12T08:42:32.346Z,99487.44
2022-11-12T08:45:18.826Z,99483.93
2022-11-12T08:48:10.989Z,99484.48
2022-11-12T08:50:57.790Z,99484.77
2022-11-12T08:53:44.582Z,99487.08
2022-11-12T08:56:31.797Z,99487.16
2022-11-12T08:59:18.613Z,99493.20
2022-11-12T09:02:06.855Z,99495.78
2022-11-12T09:04:53.382Z,99497.69
2022-11-12T09:07:55.565Z,99499.73
2022-11-12T09:10:42.440Z,99499.11
2022-11-12T09:13:29.331Z,99500.45
2022-11-12T09:16:16.158Z,99501.63
2022-11-12T09:19:03.172Z,99501.70
2022-11-12T09:21:49.777Z,99507.40
2022-11-12T09:24:36.799Z,99505.60
2022-11-12T09:27:23.605Z,99505.90
2022-11-12T09:30:10.590Z,99506.50
2022-11-12T09:32:58.146Z,99498.46
2022-11-12T09:35:45.759Z,99497.77
2022-11-12T09:38:32.837Z,99497.42
2022-11-12T09:41:22.913Z,99497.48
2022-11-12T09:44:11.531Z,99493.08
2022-11-12T09:47:07.919Z,99491.98
2022-11-12T09:49:57.441Z,99494.83
2022-11-12T09:52:46.305Z,99499.39
2022-11-12T09:55:44.168Z,99500.58
2022-11-12T09:58:31.081Z,99500.14
2022-11-12T10:01:23.893Z,99500.46
2022-11-12T10:04:37.369Z,99499.38
2022-11-12T10:07:33.144Z,99490.05
2022-11-12T10:10:24.502Z,99489.65
2022-11-12T10:13:25.242Z,99491.94
2022-11-12T10:16:44.551Z,99491.52
2022-11-12T10:19:46.079Z,99495.86
2022-11-12T10:22:55.597Z,99495.48
2022-11-12T10:25:44.071Z,99496.98
2022-11-12T10:28:38.520Z,99494.14
2022-11-12T10:31:25.708Z,99489.90
2022-11-12T10:34:16.191Z,99491.30
2022-11-12T10:37:07.072Z,99492.17
2022-11-12T10:39:54.082Z,99486.20
2022-11-12T10:42:56.052Z,99492.59
2022-11-12T10:45:46.646Z,99488.55
2022-11-12T10:48:34.507Z,99485.54
2022-11-12T10:51:29.024Z,99481.41
2022-11-12T10:54:21.207Z,99489.03
2022-11-12T10:57:27.172Z,99490.21
2022-11-12T11:00:13.766Z,99487.91
2022-11-12T11:03:02.126Z,99484.51
2022-11-12T11:05:58.042Z,99482.02
2022-11-12T11:08:45.999Z,99482.11
2022-11-12T11:11:32.420Z,99479.25
2022-11-12T11:14:27.487Z,99473.89
2022-11-12T11:17:18.499Z,99472.77
2022-11-12T11:20:06.373Z,99474.20
2022-11-12T11:23:07.373Z,99471.75
2022-11-12T11:25:54.795Z,99474.73
2022-11-12T11:28:50.626Z,99473.56
2022-11-12T11:31:46.006Z,99468.55
2022-11-12T11:34:32.845Z,99468.95
2022-11-12T11:37:26.934Z,99471.02
2022-11-12T11:40:19.601Z,99467.67
2022-11-12T11:43:24.887Z,99466.03
2022-11-12T11:46:27.540Z,99468.13
2022-11-12T11:49:32.014Z,99465.64
2022-11-12T11:52:18.772Z,99460.56
2022-11-12T11:55:05.345Z,99463.84
2022-11-12T11:57:52.062Z,99463.23
2022-11-12T12:00:47.254Z,99461.84
2022-11-12T12:03:36.836Z,99465.42
2022-11-12T12:06:27.558Z,99461.92
2022-11-12T12:09:31.054Z,99467.98
2022-11-12T12:12:29.504Z,99463.30
2022-11-12T12:15:16.314Z,99461.36
2022-11-12T12:18:15.040Z,99460.00
2022-11-12T12:21:20.654Z,99459.71
2022-11-12T12:24:07.457Z,99457.79
2022-11-12T12:26:56.321Z,99458.11
2022-11-12T12:29:47.671Z,99452.91
2022-11-12T12:32:34.109Z,99452.77
2022-11-12T12:35:44.407Z,99454.57
2022-11-12T12:38:37.335Z,99454.66
2022-11-12T12:41:42.702Z,99454.30
2022-11-12T12:44:54.056Z,99451.67
2022-11-12T12:47:43.472Z,99452.27
2022-11-12T12:50:30.681Z,99449.54
2022-11-12T12:53:29.370Z,99449.99
2022-11-12T12:56:22.124Z,99448.02
2022-11-12T12:59:18.277Z,99446.41
2022-11-12T13:02:15.087Z,99451.59
2022-11-12T13:05:01.530Z,99448.19
2022-11-12T13:07:49.394Z,99453.15
2022-11-12T13:10:42.112Z,99456.52
2022-11-12T13:13:32.324Z,99460.61
2022-11-12T13:16:38.020Z,99458.38
2022-11-12T13:19:29.763Z,99459.11
2022-11-12T13:22:19.238Z,99462.77
2022-11-12T13:25:25.250Z,99461.48
2022-11-12T13:28:12.364Z,99457.73
2022-11-12T13:30:59.982Z,99454.63
2022-11-12T13:33:47.383Z,99454.89
2022-11-12T13:36:33.806Z,99452.08
2022-11-12T13:39:21.374Z,99448.55
2022-11-12T13:42:34.913Z,99452.95
2022-11-12T13:45:26.532Z,99452.41
2022-11-12T13:48:28.817Z,99450.08
2022-11-12T13:51:22.321Z,99446.85
2022-11-12T13:54:30.697Z,99443.62
2022-11-12T13:57:20.215Z,99445.52
2022-11-12T14:00:11.067Z,99448.13
2022-11-12T14:03:00.459Z,99445.84
2022-11-12T14:05:50.325Z,99445.58
2022-11-12T14:08:49.213Z,99446.20
2022-11-12T14:11:41.479Z,99448.80
2022-11-12T14:14:28.060Z,99450.35
2022-11-12T14:17:18.212Z,99443.48
2022-11-12T14:20:08.764Z,99439.12
2022-11-12T14:22:55.346Z,99438.35
2022-11-12T14:25:48.434Z,99441.53
2022-11-12T14:28:36.524Z,99443.52
2022-11-12T14:31:26.223Z,99443.52
2022-11-12T14:34:19.416Z,99442.41
2022-11-12T14:37:06.157Z,99439.52
2022-11-12T14:39:52.965Z,99439.14
2022-11-12T14:42:40.286Z,99435.55
2022-11-12T14:45:31.174Z,99436.66
2022-11-12T14:48:21.483Z,99436.80
2022-11-12T14:51:11.096Z,99437.46
2022-11-12T14:54:09.596Z,99440.02
2022-11-12T14:56:58.431Z,99443.14
2022-11-12T14:59:45.139Z,99445.46
2022-11-12T15:02:48.908Z,99446.02
2022-11-12T15:06:00.033Z,99443.26
2022-11-12T15:08:55.786Z,99439.37
2022-11-12T15:11:42.661Z,99442.53
2022-11-12T15:14:29.438Z,99441.92
2022-11-12T15:17:35.721Z,99439.95
2022-11-12T15:20:22.557Z,99435.76
2022-11-12T15:23:16.933Z,99435.19
2022-11-12T15:26:23.324Z,99440.04
2022-11-12T15:29:10.138Z,99448.36
2022-11-12T15:31:58.764Z,99452.46
2022-11-12T15:34:46.889Z,99455.19
2022-11-12T15:37:40.951Z,99456.48
2022-11-12T15:40:27.896Z,99460.42
2022-11-12T15:43:19.661Z,99469.77
2022-11-12T15:46:12.471Z,99471.86
2022-11-12T15:48:59.346Z,99474.76
2022-11-12T15:51:46.503Z,99477.04
2022-11-12T15:54:38.174Z,99477.16
2022-11-12T15:57:29.247Z,99477.77
2022-11-12T16:00:18.865Z,99482.34
2022-11-12T16:03:13.678Z,99485.48
2022-11-12T16:06:04.090Z,99488.73
2022-11-12T16:08:54.977Z,99487.46
2022-11-12T16:11:41.320Z,99486.86
2022-11-12T16:14:28.217Z,99488.48
2022-11-12T16:17:16.843Z,99490.03
2022-11-12T16:20:06.341Z,99488.70
2022-11-12T16:22:53.493Z,99490.17
2022-11-12T16:25:41.804Z,99491.91
2022-11-12T16:28:28.374Z,99491.88
2022-11-12T16:31:15.216Z,99495.52
2022-11-12T16:34:01.692Z,99495.92
2022-11-12T16:36:48.520Z,99492.98
2022-11-12T16:39:35.154Z,99491.69
2022-11-12T16:42:21.534Z,99492.76
2022-11-12T16:45:08.678Z,99488.59
2022-11-12T16:47:56.395Z,99491.99
2022-11-12T16:50:43.813Z,99489.56
2022-11-12T16:53:31.125Z,99487.65
2022-11-12T16:56:22.492Z,99486.79
2022-11-12T16:59:11.439Z,99488.65
2022-11-12T17:01:58.451Z,99488.48
2022-11-12T17:04:44.895Z,99491.18
2022-11-12T17:07:31.626Z,99493.38
2022-11-12T17:10:23.249Z,99497.09
2022-11-12T17:13:13.197Z,99496.24
2022-11-12T17:15:59.708Z,99498.10
2022-11-12T17:18:46.340Z,99496.83
2022-11-12T17:21:33.252Z,99498.77
2022-11-12T17:24:19.865Z,99503.88
2022-11-12T17:27:06.386Z,99501.29
2022-11-12T17:29:52.891Z,99501.50
2022-11-12T17:32:39.467Z,99506.81
2022-11-12T17:35:26.381Z,99509.75
2022-11-12T17:38:13.292Z,99506.58
2022-11-12T17:40:59.672Z,99506.81
2022-11-12T17:43:46.586Z,99508.64
2022-11-12T17:46:34.253Z,99509.03
2022-11-12T17:49:20.733Z,99510.34
2022-11-12T17:52:07.445Z,99511.04
2022-11-12T17:54:54.150Z,99510.29
2022-11-12T17:57:41.165Z,99509.57
2022-11-12T18:00:27.970Z,99508.17
2022-11-12T18:03:14.781Z,99508.98
2022-11-12T18:06:01.796Z,99507.19
2022-11-12T18:08:52.681Z,99504.58
2022-11-12T18:11:44.220Z,99505.52
2022-11-12T18:14:30.770Z,99503.97
2022-11-12T18:17:17.488Z,99505.80
2022-11-12T18:20:04.548Z,99507.83
2022-11-12T18:22:54.738Z,99510.45
2022-11-12T18:25:41.093Z,99503.42
2022-11-12T18:28:27.889Z,99503.89
2022-11-12T18:31:14.505Z,99507.09
2022-11-12T18:34:00.853Z,99505.68
2022-11-12T18:36:47.632Z,99505.69
2022-11-12T18:39:34.374Z,99504.60
2022-11-12T18:42:20.746Z,99509.31
2022-11-12T18:45:07.656Z,99508.19
2022-11-12T18:47:54.385Z,99510.23
2022-11-12T18:50:40.702Z,99506.84
2022-11-12T18:53:27.612Z,99503.02
2022-11-12T18:56:18.542Z,99499.79
2022-11-12T18:59:05.511Z,99500.77
2022-11-12T19:01:52.629Z,99497.95
2022-11-12T19:04:45.078Z,99498.00
2022-11-12T19:07:31.945Z,99498.89
2022-11-12T19:10:18.793Z,99503.03
2022-11-12T19:13:06.751Z,99503.48
2022-11-12T19:15:53.410Z,99503.98
2022-11-12T19:18:41.269Z,99510.02
2022-11-12T19:21:28.160Z,99512.30
2022-11-12T19:24:14.582Z,99515.29
2022-11-12T19:27:01.255Z,99515.40
2022-11-12T19:29:49.707Z,99513.05
2022-11-12T19:32:36.346Z,99508.17
2022-11-12T19:35:23.034Z,99510.04
2022-11-12T19:38:09.654Z,99513.55
2022-11-12T19:41:02.874Z,99516.02
2022-11-12T19:43:49.671Z,99522.02
2022-11-12T19:46:36.784Z,99524.02
2022-11-12T19:49:23.344Z,99522.44
2022-11-12T19:52:09.805Z,99525.42
2022-11-12T19:54:56.546Z,99524.05
2022-11-12T19:57:45.834Z,99522.23
2022-11-12T20:00:32.834Z,99519.87
2022-11-12T20:03:22.611Z,99522.79
2022-11-12T20:06:10.801Z,99523.45
2022-11-12T20:09:00.426Z,99522.06
2022-11-12T20:11:47.478Z,99525.11
2022-11-12T20:14:34.057Z,99531.64
2022-11-12T20:17:20.624Z,99536.22
2022-11-12T20:20:09.581Z,99541.52
2022-11-12T20:22:56.205Z,99543.19
2022-11-12T20:25:42.822Z,99544.08
2022-11-12T20:28:29.327Z,99543.95
2022-11-12T20:31:20.712Z,99544.61
2022-11-12T20:34:07.926Z,99552.58
2022-11-12T20:36:54.740Z,99551.45
2022-11-12T20:39:41.581Z,99551.88
2022-11-12T20:42:28.703Z,99552.67
2022-11-12T20:45:15.376Z,99549.55
2022-11-12T20:48:02.115Z,99551.16
2022-11-12T20:51:09.616Z,99555.38
2022-11-12T20:53:59.879Z,99567.20
2022-11-12T20:56:50.774Z,99564.80
2022-11-12T20:59:41.341Z,99558.66
2022-11-12T21:02:27.847Z,99559.64
2022-11-12T21:05:14.506Z,99559.89
2022-11-12T21:08:01.700Z,99561.25
2022-11-12T21:10:49.074Z,99561.68
2022-11-12T21:13:36.169Z,99557.39
2022-11-12T21:16:23.178Z,99558.19
2022-11-12T21:19:10.344Z,99557.23
2022-11-12T21:21:56.908Z,99555.70
2022-11-12T21:24:43.298Z,99555.85
2022-11-12T21:27:30.006Z,99557.05
2022-11-12T21:30:16.889Z,99553.88
2022-11-12T21:33:03.630Z,99548.50
2022-11-12T21:35:53.681Z,99549.04
2022-11-12T21:38:40.288Z,99552.38
2022-11-12T21:41:27.956Z,99556.88
2022-11-12T21:44:14.658Z,99555.37
2022-11-12T21:47:01.335Z,99558.48
2022-11-12T21:49:48.169Z,99557.20
2022-11-12T21:52:34.877Z,99560.82
2022-11-12T21:55:21.279Z,99563.02
2022-11-12T21:58:07.767Z,99560.73
2022-11-12T22:00:54.068Z,99557.73
2022-11-12T22:03:40.640Z,99562.19
2022-11-12T22:06:28.548Z,99559.66
2022-11-12T22:09:15.606Z,99562.23
2022-11-12T22:12:02.442Z,99562.75
2022-11-12T22:14:49.044Z,99564.85
2022-11-12T22:17:35.347Z,99568.83
2022-11-12T22:20:21.899Z,99567.27
2022-11-12T22:23:08.152Z,99565.15
2022-11-12T22:25:57.992Z,99567.86
2022-11-12T22:28:45.061Z,99568.29
2022-11-12T22:31:32.313Z,99571.77
2022-11-12T22:34:19.085Z,99569.98
2022-11-12T22:37:05.787Z,99563.45
2022-11-12T22:39:52.488Z,99557.33
2022-11-12T22:42:39.136Z,99555.84
2022-11-12T22:45:25.999Z,99554.63
2022-11-12T22:48:12.342Z,99556.10
2022-11-12T22:51:00.489Z,99551.96
2022-11-12T22:53:47.552Z,99550.30
2022-11-12T22:56:34.619Z,99554.89
2022-11-12T22:59:20.886Z,99553.95
2022-11-12T23:02:08.294Z,99550.47
2022-11-12T23:04:54.970Z,99550.13
2022-11-12T23:07:41.664Z,99550.63
2022-11-12T23:10:28.411Z,99550.88
2022-11-12T23:13:15.426Z,99547.61
2022-11-12T23:16:02.540Z,99548.96
2022-11-12T23:18:50.786Z,99546.05
2022-11-12T23:21:37.491Z,99545.00
2022-11-12T23:24:23.996Z,99544.04
2022-11-12T23:27:10.869Z,99536.09
2022-11-12T23:29:57.718Z,99538.54
2022-11-12T23:32:44.216Z,99541.87
2022-11-12T23:35:30.933Z,99543.95
2022-11-12T23:38:17.636Z,99546.91
2022-11-12T23:41:04.922Z,99546.31
2022-11-12T23:43:52.179Z,99542.39
2022-11-12T23:46:39.127Z,99544.48
2022-11-12T23:49:25.999Z,99546.08
2022-11-12T23:52:12.810Z,99541.52
2022-11-12T23:54:59.626Z,99538.73
2022-11-12T23:57:45.866Z,99537.14
